Latest Weather Observations for Hobart Airport

IDT60801

Issued at 11:31 am EST Wednesday 28 September 2016 (issued every 30 minutes, with the page automatically refreshed every 10 minutes)

About weather observations | Map of weather stations | Latest weather observations for TAS | Other Formats
Station Details ID: 094008 Name: HOBART AIRPORT Lat: -42.83 Lon: 147.50 Height: 4.0 m
Data from the previous 72 hours. | See also: Recent months at Hobart Airport
Date/Time
EST
Temp
°C
App
Temp
°C
Dew
Point
°C
Rel
Hum
%
Delta-T
°C
Wind Press
QNH
hPa
Press
MSL
hPa
Rain since
9am
mm
Dir  Spd
km/h
Gust
km/h
Spd
kts
Gust
kts
28/11:00am 14.6 10.9 2.5 44 5.4 N 11 17 6 9 1009.1 1009.1 0.0
28/10:30am 14.7 10.8 3.5 47 5.1 NW 13 19 7 10 1009.4 1009.4 0.0
28/10:00am 13.5 9.3 3.8 52 4.4 NW 15 20 8 11 1009.6 1009.6 0.0
28/09:30am 13.3 9.5 4.1 53 4.2 NNW 13 17 7 9 1009.8 1009.8 0.0
28/09:00am 12.7 9.1 4.9 59 3.6 NNW 13 22 7 12 1010.2 1010.2 0.0
28/08:30am 11.9 8.0 5.4 64 3.0 NW 15 19 8 10 1010.1 1010.1 0.0
28/08:00am 11.5 8.1 5.7 67 2.7 NW 13 19 7 10 1010.2 1010.2 0.0
28/07:30am 10.5 6.6 5.5 71 2.3 NNW 15 19 8 10 1010.1 1010.1 0.0
28/07:00am 9.0 4.9 6.2 82 1.3 NNW 17 24 9 13 1009.9 1009.9 0.0
28/06:30am 9.3 4.6 6.0 80 1.5 NW 20 26 11 14 1009.6 1009.6 0.0
28/06:00am 9.0 4.6 5.0 76 1.8 NNW 17 24 9 13 1009.3 1009.3 0.0
28/05:30am 9.1 5.0 4.6 73 2.0 NW 15 17 8 9 1009.1 1009.1 0.0
28/05:00am 9.2 4.8 5.0 75 1.9 NW 17 20 9 11 1008.8 1008.8 0.0
28/04:30am 9.1 5.0 6.1 81 1.4 NW 17 22 9 12 1008.6 1008.6 0.0
28/04:00am 9.0 4.8 5.7 80 1.5 NNW 17 26 9 14 1008.3 1008.3 0.0
28/03:30am 8.9 6.0 6.5 85 1.1 NW 11 15 6 8 1008.2 1008.2 0.0
28/03:00am 9.1 6.2 6.5 84 1.2 NW 11 15 6 8 1008.0 1008.0 0.0
28/02:30am 9.4 6.2 6.8 84 1.2 NNW 13 22 7 12 1007.8 1007.8 0.0
28/02:00am 9.7 5.7 6.7 81 1.4 NW 17 20 9 11 1007.6 1007.6 0.0
28/01:30am 9.8 6.5 6.6 80 1.5 NW 13 19 7 10 1007.6 1007.6 0.0
28/01:00am 8.5 6.6 6.8 89 0.8 W 6 7 3 4 1007.6 1007.6 0.0
28/12:30am 8.4 6.3 6.7 89 0.8 NW 7 9 4 5 1007.6 1007.6 0.0
28/12:00am 8.5 6.1 7.0 90 0.7 N 9 11 5 6 1007.6 1007.6 0.0
 
Date/Time
EST
Temp
°C
App
Temp
°C
Dew
Point
°C
Rel
Hum
%
Delta-T
°C
Wind Press
QNH
hPa
Press
MSL
hPa
Rain since
9am
mm
Dir  Spd
km/h
Gust
km/h
Spd
kts
Gust
kts
27/11:30pm 9.0 7.0 7.3 89 0.8 NW 7 9 4 5 1007.7 1007.7 0.0
27/11:00pm 9.7 7.8 7.4 85 1.1 W 7 9 4 5 1007.8 1007.8 0.0
27/10:30pm 10.5 9.2 7.6 82 1.4 NW 4 7 2 4 1007.6 1007.6 0.0
27/10:00pm 9.5 7.8 7.4 87 1.0 NW 6 7 3 4 1007.8 1007.8 0.0
27/09:30pm 10.4 8.2 7.7 83 1.3 SSW 9 13 5 7 1007.7 1007.7 0.0
27/09:00pm 11.3 10.6 6.9 74 2.1 CALM 0 0 0 0 1007.8 1007.8 0.0
27/08:30pm 11.7 9.7 6.9 72 2.3 SW 7 11 4 6 1007.7 1007.7 0.0
27/08:00pm 12.3 9.6 7.4 72 2.4 NE 11 13 6 7 1007.5 1007.5 0.0
27/07:30pm 12.7 9.5 6.7 67 2.9 NNE 13 19 7 10 1007.2 1007.2 0.0
27/07:00pm 12.7 9.1 6.7 67 2.9 NNE 15 20 8 11 1007.1 1007.1 0.0
27/06:30pm 12.1 9.4 7.4 73 2.3 N 11 13 6 7 1006.9 1006.9 0.0
27/06:00pm 13.5 11.6 7.6 67 2.9 SE 7 9 4 5 1006.7 1006.7 0.0
27/05:30pm 13.9 11.0 6.7 62 3.5 ESE 11 15 6 8 1006.4 1006.4 0.0
27/05:00pm 15.4 11.9 5.3 51 4.8 E 13 19 7 10 1006.2 1006.2 0.0
27/04:30pm 15.9 12.1 5.8 51 4.9 ESE 15 22 8 12 1005.9 1005.9 0.0
27/04:00pm 16.3 12.9 6.0 50 5.0 E 13 20 7 11 1005.8 1005.8 0.0
27/03:30pm 15.9 12.6 6.5 53 4.6 ESE 13 20 7 11 1006.0 1006.0 0.0
27/03:00pm 16.0 13.1 6.4 53 4.7 E 11 24 6 13 1006.0 1006.0 0.0
27/02:30pm 16.5 13.1 6.0 50 5.1 E 13 19 7 10 1006.1 1006.1 0.0
27/02:00pm 16.2 13.1 5.6 49 5.1 SSE 11 17 6 9 1006.4 1006.4 0.0
27/01:30pm 16.1 13.0 3.5 43 5.8 WNW 9 19 5 10 1006.8 1006.8 0.0
27/01:00pm 15.7 12.3 3.8 45 5.5 NW 11 15 6 8 1006.9 1006.9 0.0
27/12:30pm 15.3 12.1 4.9 50 4.9 NNW 11 17 6 9 1007.3 1007.3 0.0
27/12:00pm 14.9 10.8 4.1 48 5.0 NW 15 22 8 12 1007.6 1007.6 0.0
27/11:30am 14.3 10.9 5.9 57 4.0 NNW 13 17 7 9 1007.8 1007.8 0.0
27/11:00am 13.3 9.4 5.2 58 3.8 NNW 15 22 8 12 1008.0 1008.0 0.0
27/10:30am 12.8 9.4 6.1 64 3.2 NNW 13 17 7 9 1008.2 1008.2 0.0
27/10:00am 12.1 8.5 6.7 69 2.6 NW 15 19 8 10 1008.4 1008.4 0.0
27/09:30am 11.5 8.2 6.2 70 2.5 NW 13 19 7 10 1008.4 1008.4 0.0
27/09:00am 10.3 6.4 5.3 71 2.3 NNW 15 19 8 10 1008.4 1008.4 3.0
27/08:30am 9.6 6.1 5.4 75 1.9 N 13 19 7 10 1008.4 1008.4 3.0
27/08:00am 8.1 4.5 5.0 81 1.4 NW 13 17 7 9 1008.7 1008.7 3.0
27/07:30am 7.1 3.4 4.6 84 1.1 NW 13 15 7 8 1008.6 1008.6 3.0
27/07:00am 6.7 3.8 4.4 85 1.0 NNW 9 13 5 7 1008.5 1008.5 3.0
27/06:30am 5.7 1.9 4.1 89 0.7 NW 13 15 7 8 1008.5 1008.5 3.0
27/06:00am 5.4 1.9 3.7 89 0.7 NW 11 13 6 7 1008.2 1008.2 2.6
27/05:30am 5.1 1.3 3.7 91 0.6 NW 13 15 7 8 1007.9 1007.9 2.6
27/05:00am 5.3 1.9 3.9 91 0.6 NW 11 13 6 7 1007.8 1007.8 2.6
27/04:30am 5.6 2.2 4.0 89 0.7 NW 11 15 6 8 1007.7 1007.7 2.6
27/04:00am 5.4 1.6 4.0 91 0.6 NW 13 15 7 8 1007.6 1007.6 2.6
27/03:30am 4.7 1.3 4.0 95 0.3 NW 11 15 6 8 1007.5 1007.5 2.6
27/03:00am 5.2 2.2 4.3 94 0.4 WNW 9 11 5 6 1007.7 1007.7 2.6
27/02:30am 5.9 2.2 4.7 92 0.5 NW 13 17 7 9 1007.9 1007.9 2.6
27/02:00am 6.4 2.7 4.6 88 0.8 NW 13 15 7 8 1008.2 1008.2 2.6
27/01:30am 6.4 3.9 4.8 89 0.7 NNW 7 11 4 6 1008.3 1008.3 2.6
27/01:00am 7.1 4.4 5.8 91 0.6 NNW 9 15 5 8 1008.5 1008.5 2.6
27/12:30am 7.7 4.4 6.2 90 0.7 NW 13 15 7 8 1008.6 1008.6 2.6
27/12:00am 8.0 4.8 6.9 93 0.5 NW 13 17 7 9 1008.9 1008.9 2.6
 
Date/Time
EST
Temp
°C
App
Temp
°C
Dew
Point
°C
Rel
Hum
%
Delta-T
°C
Wind Press
QNH
hPa
Press
MSL
hPa
Rain since
9am
mm
Dir  Spd
km/h
Gust
km/h
Spd
kts
Gust
kts
26/11:30pm 8.2 5.1 7.4 95 0.4 NW 13 17 7 9 1009.0 1009.0 2.6
26/11:00pm 9.0 7.0 7.3 89 0.8 N 7 9 4 5 1009.1 1009.1 2.6
26/10:30pm 9.2 6.5 7.5 89 0.8 NW 11 15 6 8 1009.1 1009.1 2.6
26/10:00pm 9.0 7.1 7.7 91 0.6 WNW 7 11 4 6 1009.3 1009.3 2.6
26/09:30pm 9.3 7.6 7.6 89 0.8 S 6 7 3 4 1009.5 1009.5 2.6
26/09:00pm 9.6 7.9 8.2 91 0.7 W 7 9 4 5 1009.5 1009.5 2.6
26/08:52pm 9.7 8.1 8.0 89 0.8 SW 6 9 3 5 1009.5 1009.5 2.6
26/08:45pm 9.7 7.5 8.0 89 0.8 WNW 9 13 5 7 1009.5 1009.5 2.4
26/08:30pm 9.6 6.6 7.7 88 0.9 NW 13 17 7 9 1009.6 1009.6 1.6
26/08:28pm 9.7 6.3 7.8 88 0.9 NW 15 17 8 9 1009.6 1009.6 1.4
26/08:00pm 10.5 6.6 6.9 78 1.7 N 17 28 9 15 1009.4 1009.4 0.0
26/07:30pm 10.2 8.0 6.4 77 1.8 E 7 9 4 5 1008.9 1008.9 0.0
26/07:00pm 10.6 8.6 6.1 74 2.1 SE 6 9 3 5 1008.8 1008.8 0.0
26/06:30pm 11.8 9.2 6.3 69 2.6 ENE 9 17 5 9 1008.5 1008.5 0.0
26/06:00pm 12.6 8.4 5.6 62 3.3 NE 17 24 9 13 1008.3 1008.3 0.0
26/05:30pm 13.1 9.4 6.2 63 3.3 ENE 15 19 8 10 1008.1 1008.1 0.0
26/05:00pm 13.9 9.6 5.4 56 4.0 ENE 17 24 9 13 1007.8 1007.8 0.0
26/04:30pm 14.2 10.2 5.0 54 4.3 E 15 20 8 11 1007.5 1007.5 0.0
26/04:00pm 13.6 9.6 4.8 55 4.1 SE 15 20 8 11 1007.4 1007.4 0.0
26/03:30pm 14.2 9.7 4.2 51 4.6 SE 17 26 9 14 1007.4 1007.4 0.0
26/03:00pm 15.1 11.0 4.4 48 5.0 ESE 15 22 8 12 1007.6 1007.6 0.0
26/02:30pm 14.5 9.5 4.4 50 4.7 SSE 20 26 11 14 1007.8 1007.8 0.0
26/02:00pm 14.5 9.7 4.9 52 4.5 SE 19 26 10 14 1008.1 1008.1 0.0
26/01:30pm 14.2 9.9 3.1 47 5.0 SE 15 20 8 11 1008.3 1008.3 0.0
26/01:00pm 13.9 10.0 3.5 49 4.7 SSE 13 20 7 11 1008.6 1008.6 0.0
26/12:30pm 14.4 11.4 2.2 43 5.4 SW 7 11 4 6 1008.9 1008.9 0.0
26/12:00pm 13.9 10.2 2.6 46 5.0 WNW 11 19 6 10 1009.4 1009.4 0.0
26/11:30am 14.1 10.1 2.9 47 5.0 NW 13 19 7 10 1009.7 1009.7 0.0
26/11:00am 13.1 9.1 3.0 50 4.5 WNW 13 19 7 10 1010.0 1010.0 0.0
26/10:30am 12.7 8.2 2.4 49 4.5 NNW 15 20 8 11 1010.4 1010.4 0.0
26/10:00am 12.3 7.8 2.4 51 4.3 NNW 15 20 8 11 1010.8 1010.8 0.0
26/09:30am 11.5 7.5 3.1 56 3.7 NNW 13 19 7 10 1010.9 1010.9 0.0
26/09:00am 10.4 6.2 1.9 55 3.6 NNW 13 17 7 9 1011.0 1011.0 0.0
26/08:30am 9.3 5.2 2.5 62 2.9 N 13 19 7 10 1011.2 1011.2 0.0
26/08:00am 9.0 5.0 2.6 64 2.7 NNW 13 19 7 10 1011.3 1011.3 0.0
26/07:30am 7.7 3.7 2.7 70 2.1 NNW 13 19 7 10 1011.4 1011.4 0.0
26/07:00am 7.5 4.2 2.5 70 2.1 NNW 9 11 5 6 1011.4 1011.4 0.0
26/06:30am 6.3 2.3 2.7 78 1.5 N 13 15 7 8 1011.3 1011.3 0.0
26/06:00am 6.0 2.7 2.3 77 1.5 NNW 9 13 5 7 1011.3 1011.3 0.0
26/05:30am 6.0 2.7 2.3 77 1.5 N 9 13 5 7 1011.0 1011.0 0.0
26/05:00am 5.4 2.1 2.5 81 1.2 NNW 9 11 5 6 1010.8 1010.8 0.0
26/04:30am 6.4 2.7 2.5 76 1.6 NNW 11 13 6 7 1010.8 1010.8 0.0
26/04:00am 5.3 2.1 2.9 84 1.0 NNW 9 11 5 6 1010.7 1010.7 0.0
26/03:30am 5.5 1.8 2.3 80 1.3 WNW 11 11 6 6 1010.6 1010.6 0.0
26/03:00am 6.4 2.8 2.8 78 1.5 NW 11 13 6 7 1010.6 1010.6 0.0
26/02:30am 6.8 3.1 2.4 73 1.8 NNW 11 15 6 8 1010.6 1010.6 0.0
26/02:00am 6.5 2.9 3.2 79 1.4 NNW 11 15 6 8 1010.8 1010.8 0.0
26/01:30am 7.1 2.0 3.3 77 1.6 NW 19 24 10 13 1010.8 1010.8 0.0
26/01:00am 7.7 2.5 2.7 70 2.1 NNW 19 24 10 13 1010.8 1010.8 0.0
26/12:30am 8.0 3.2 2.5 68 2.3 NNW 17 22 9 12 1010.7 1010.7 0.0
26/12:00am 8.1 3.8 3.4 72 2.0 NW 15 19 8 10 1010.6 1010.6 0.0
 
Date/Time
EST
Temp
°C
App
Temp
°C
Dew
Point
°C
Rel
Hum
%
Delta-T
°C
Wind Press
QNH
hPa
Press
MSL
hPa
Rain since
9am
mm
Dir  Spd
km/h
Gust
km/h
Spd
kts
Gust
kts
25/11:30pm 8.7 3.9 2.5 65 2.6 NNW 17 20 9 11 1010.7 1010.7 0.0
25/11:00pm 8.7 3.9 2.8 66 2.5 NNW 17 26 9 14 1010.7 1010.7 0.0
25/10:30pm 8.9 3.7 2.2 63 2.8 NW 19 24 10 13 1010.5 1010.5 0.0
25/10:00pm 9.9 4.9 1.5 56 3.5 NW 17 24 9 13 1010.5 1010.5 0.0
25/09:30pm 8.2 4.3 1.3 62 2.8 NNW 11 13 6 7 1010.3 1010.3 0.0
25/09:00pm 9.9 5.4 -0.4 48 4.1 W 13 17 7 9 1010.1 1010.1 0.0
25/08:30pm 10.6 3.5 -1.4 43 4.7 WNW 26 35 14 19 1009.8 1009.8 0.0
25/08:00pm 10.8 5.5 -0.4 46 4.5 WNW 17 26 9 14 1009.6 1009.6 0.0
25/07:30pm 10.3 6.0 0.8 51 3.9 NW 13 15 7 8 1009.1 1009.1 0.0
25/07:00pm 11.2 6.4 -0.1 45 4.6 WNW 15 20 8 11 1008.4 1008.4 0.0
25/06:30pm 12.1 6.0 -2.2 37 5.6 WNW 20 28 11 15 1007.6 1007.6 0.0
25/06:00pm 12.5 6.2 -0.8 40 5.4 WNW 22 28 12 15 1007.2 1007.2 0.0
25/05:30pm 13.3 7.7 0.2 40 5.5 WNW 19 28 10 15 1006.6 1006.6 0.0
25/05:00pm 14.1 8.2 -0.9 35 6.2 WNW 20 30 11 16 1006.2 1006.2 0.0
25/04:30pm 15.1 9.5 0.1 36 6.4 WSW 19 30 10 16 1005.9 1005.9 0.0
25/04:00pm 14.9 9.4 0.4 37 6.2 SW 19 33 10 18 1005.6 1005.6 0.0
25/03:30pm 16.0 10.4 0.2 34 6.8 W 19 32 10 17 1005.2 1005.2 0.0
25/03:00pm 15.0 9.4 0.2 36 6.3 SSW 19 26 10 14 1005.1 1005.1 0.0
25/02:30pm 15.9 10.1 -0.3 33 6.9 WNW 20 28 11 15 1004.9 1004.9 0.0
25/02:00pm 15.7 8.3 -0.7 32 6.9 W 28 35 15 19 1004.7 1004.7 0.0
25/01:30pm 15.8 11.3 1.9 39 6.2 WSW 15 26 8 14 1004.5 1004.5 0.0
25/01:00pm 14.0 8.7 1.6 43 5.4 SSW 19 26 10 14 1004.5 1004.5 0.0
25/12:30pm 13.7 7.1 1.8 44 5.2 SSW 26 35 14 19 1004.4 1004.4 0.0
25/12:00pm 13.8 9.2 3.7 50 4.6 WSW 17 30 9 16 1004.4 1004.4 0.0

Other Formats:

Comma delimited format used in spreadsheet applications
http://www.bom.gov.au/fwo/IDT60801/IDT60801.94975.axf

JavaScript Object Notation format (JSON) in row-major order
http://www.bom.gov.au/fwo/IDT60801/IDT60801.94975.json